Ibis Bulker — V7UG6 — position and weather

sailwx.info

Track history (hours):
 
Tides and Currents Weather Stations Pressure Air Temp Water Temp Dewpoint Dewpoint Depression Visibility Wind Speed Wind Dir Waves Ship Positions

Ibis Bulker

Last reported at 2018-Apr-08 12:57 UTC. Time now 2018-Jun-21 19:58 UTC.
Position N 37°27' E 025°56'.
Warning: this ship's position is months out of date.

Length 190 m; draft 10.9 m.

Type: Cargo ship. MMSI: 538003946.

Date/timePositionNaut miles runAvg speedWind from/ knotsBaromVisibWave heightAir tempDewpointWater temp
2018-Apr-08 12:57N 37°27' E 025°56'511.1
2018-Apr-08 12:30N 37°32' E 025°54'336 6.6
2018-Apr-06 09:39N 42°06' E 030°08'212.0
2018-Apr-06 09:29N 42°07' E 030°10'612.0
2018-Apr-06 09:00N 42°09' E 030°17'812.0
2018-Apr-06 08:20N 42°13' E 030°27'411.9
2018-Apr-06 08:00N 42°14' E 030°32'611.8
2018-Apr-06 07:30N 42°17' E 030°39'611.6
2018-Apr-06 07:01N 42°19' E 030°46'1111.7
2018-Apr-06 06:07N 42°24' E 030°59'211.7
2018-Apr-06 05:55N 42°25' E 031°02'511.7
2018-Apr-06 05:28N 42°27' E 031°08'611.9
2018-Apr-06 04:59N 42°30' E 031°15'611.8
2018-Apr-06 04:27N 42°32' E 031°23'511.6
2018-Apr-06 04:00N 42°35' E 031°30'611.5
2018-Apr-06 03:30N 42°37' E 031°36'611.5
2018-Apr-06 03:00N 42°39' E 031°44'611.5
2018-Apr-06 02:30N 42°42' E 031°51'611.5
2018-Apr-06 02:01N 42°44' E 031°58'611.4
2018-Apr-06 01:30N 42°46' E 032°05'611.4
2018-Apr-06 01:00N 42°49' E 032°12'611.4
2018-Apr-06 00:30N 42°51' E 032°19'911.3
2018-Apr-05 23:44N 42°54' E 032°31'211.2
2018-Apr-05 23:31N 42°55' E 032°34'611.3
2018-Apr-05 23:01N 42°57' E 032°41'611.4
2018-Apr-05 22:30N 42°60' E 032°48'611.5
2018-Apr-05 22:00N 43°02' E 032°55'611.6
2018-Apr-05 21:31N 43°04' E 033°02'611.7
2018-Apr-05 21:00N 43°06' E 033°10'611.8
2018-Apr-05 20:30N 43°08' E 033°18'611.8
2018-Apr-05 19:59N 43°11' E 033°25'611.9
2018-Apr-05 19:31N 43°13' E 033°32'611.8
2018-Apr-05 19:01N 43°15' E 033°40'611.8
2018-Apr-05 18:30N 43°18' E 033°47'611.7
2018-Apr-05 18:00N 43°20' E 033°55'612.0
2018-Apr-05 17:30N 43°23' E 034°02'612.0
2018-Apr-05 17:01N 43°25' E 034°10'611.7
2018-Apr-05 16:30N 43°27' E 034°17'611.7
2018-Apr-05 16:01N 43°29' E 034°25'611.4
2018-Apr-05 15:30N 43°31' E 034°32'611.3
2018-Apr-05 15:00N 43°33' E 034°39'611.5
2018-Apr-05 14:30N 43°35' E 034°47'611.4
2018-Apr-05 14:00N 43°38' E 034°54'611.2
2018-Apr-05 13:30N 43°40' E 035°01'10811.9
2018-Apr-05 04:30N 44°23' E 037°18'611.8
2018-Apr-05 03:59N 44°26' E 037°25'611.7
2018-Apr-05 03:30N 44°29' E 037°32'611.7
2018-Apr-05 03:01N 44°31' E 037°40'611.1
2018-Apr-05 02:30N 44°35' E 037°46'510.6
2018-Apr-05 02:00N 44°39' E 037°50'4 7.7
2018-Apr-05 01:30N 44°43' E 037°48'1 2.2
2018-Apr-05 00:59N 44°44' E 037°48'0 0.0
2018-Apr-05 00:26N 44°44' E 037°48'0 0.0
2018-Apr-04 23:59N 44°44' E 037°48'0 0.0
2018-Apr-04 23:29N 44°44' E 037°48'0 0.0
2018-Apr-04 22:59N 44°44' E 037°48'0 0.0
2018-Apr-04 22:29N 44°44' E 037°48'0 0.0
2018-Apr-04 21:59N 44°44' E 037°48'0 0.0
2018-Apr-04 21:29N 44°44' E 037°48'0 0.0
2018-Apr-04 20:59N 44°44' E 037°48'0 0.0
2018-Apr-04 20:29N 44°44' E 037°48'0 0.0
2018-Apr-04 19:59N 44°44' E 037°48'0 0.0
2018-Apr-04 19:29N 44°44' E 037°48'0 0.0
2018-Apr-04 18:59N 44°44' E 037°48'0 0.0
2018-Apr-04 18:29N 44°44' E 037°48'0 0.0
2018-Apr-04 17:59N 44°44' E 037°48'0 0.0
2018-Apr-04 17:29N 44°44' E 037°48'0 0.0
2018-Apr-04 16:59N 44°44' E 037°48'0 0.0
2018-Apr-04 16:29N 44°44' E 037°48'0 0.0
2018-Apr-04 15:59N 44°44' E 037°48'0 0.0
2018-Apr-04 15:29N 44°44' E 037°48'0 0.0
2018-Apr-04 14:59N 44°44' E 037°48'0 0.0
2018-Apr-04 14:29N 44°44' E 037°48'0 0.0
2018-Apr-04 13:59N 44°44' E 037°48'0 0.0
2018-Apr-04 13:29N 44°44' E 037°48'0 0.0
2018-Apr-04 12:59N 44°44' E 037°48'0 0.0
2018-Apr-04 12:29N 44°44' E 037°48'0 0.0
2018-Apr-04 11:59N 44°44' E 037°48'0 0.0
2018-Apr-04 11:29N 44°44' E 037°48'0 0.0
2018-Apr-04 10:59N 44°44' E 037°48'0 0.0
2018-Apr-04 10:29N 44°44' E 037°48'0 0.0
2018-Apr-04 09:59N 44°44' E 037°48'0 0.0
2018-Apr-04 09:29N 44°44' E 037°48'0 0.0
2018-Apr-04 08:59N 44°44' E 037°48'0 0.0
2018-Apr-04 08:29N 44°44' E 037°48'0 0.0
2018-Apr-04 07:59N 44°44' E 037°48'0 0.0
2018-Apr-04 07:29N 44°44' E 037°48'0 0.0
2018-Apr-04 06:59N 44°44' E 037°48'0 0.0
2018-Apr-04 06:29N 44°44' E 037°48'0 0.0
2018-Apr-04 05:59N 44°44' E 037°48'0 0.0
2018-Apr-04 05:29N 44°44' E 037°48'0 0.0
2018-Apr-04 04:59N 44°44' E 037°48'0 0.0
2018-Apr-04 04:29N 44°44' E 037°48'0 0.0
2018-Apr-04 03:59N 44°44' E 037°48'0 0.0
2018-Apr-04 03:29N 44°44' E 037°48'0 0.0
2018-Apr-04 02:59N 44°44' E 037°48'0 0.0
2018-Apr-04 02:29N 44°44' E 037°48'0 0.0
2018-Apr-04 01:59N 44°44' E 037°48'0 0.0
2018-Apr-04 01:29N 44°44' E 037°48'0 0.0
2018-Apr-04 00:59N 44°44' E 037°48'0 0.0
2018-Apr-04 00:29N 44°44' E 037°48'0 0.0
2018-Apr-03 23:59N 44°44' E 037°48'0 0.0
2018-Apr-03 23:29N 44°44' E 037°48'0 0.0
2018-Apr-03 22:59N 44°44' E 037°48'0 0.0
2018-Apr-03 22:29N 44°44' E 037°48'0 0.0
2018-Apr-03 21:59N 44°44' E 037°48'0 0.0
2018-Apr-03 21:26N 44°44' E 037°48'0 0.0
2018-Apr-03 20:59N 44°44' E 037°48'0 0.0
2018-Apr-03 20:29N 44°44' E 037°48'0 0.0
2018-Apr-03 19:59N 44°44' E 037°48'0 0.0
2018-Apr-03 19:29N 44°44' E 037°48'0 0.0
2018-Apr-03 18:59N 44°44' E 037°48'0 0.0
2018-Apr-03 18:29N 44°44' E 037°48'0 0.0
2018-Apr-03 17:59N 44°44' E 037°48'0 0.0
2018-Apr-03 17:29N 44°44' E 037°48'0 0.0
2018-Apr-03 16:59N 44°44' E 037°48'0 0.0
2018-Apr-03 16:29N 44°44' E 037°48'0 0.0
2018-Apr-03 15:59N 44°44' E 037°48'0 0.0
2018-Apr-03 15:29N 44°44' E 037°48'0 0.0
2018-Apr-03 14:59N 44°44' E 037°48'0 0.0
2018-Apr-03 14:29N 44°44' E 037°48'0 0.0
2018-Apr-03 13:59N 44°44' E 037°48'0 0.0
2018-Apr-03 13:29N 44°44' E 037°48'0 0.7
2018-Apr-03 13:00N 44°43' E 037°48'4 7.1
2018-Apr-03 12:31N 44°40' E 037°50'3 5.5
2018-Apr-03 12:01N 44°38' E 037°52'2 4.6
2018-Apr-03 11:30N 44°35' E 037°52'3 6.8
2018-Apr-03 11:00N 44°32' E 037°51'510.3
2018-Apr-03 10:30N 44°30' E 037°44'1313.4
2018-Apr-03 09:32N 44°35' E 038°01'0 0.2
2018-Apr-03 09:30N 44°35' E 038°01'0 0.0
2018-Apr-03 09:00N 44°35' E 038°01'0 0.0
2018-Apr-03 08:30N 44°35' E 038°01'0 0.0
2018-Apr-03 07:58N 44°35' E 038°01'0 0.0
2018-Apr-03 07:31N 44°35' E 038°01'1937.7
2018-Apr-03 07:00N 44°27' E 037°37'611.5
2018-Apr-03 06:30N 44°24' E 037°31'  
2018-Mar-31 04:19N 39°02' E 025°10'512.7
2018-Mar-31 03:55N 38°58' E 025°06'7210.0
2018-Mar-30 20:42N 38°00' E 024°10'312.1
2018-Mar-30 20:26N 38°03' E 024°09'  
Track history (hours):
 
Tides and Currents Weather Stations Pressure Air Temp Water Temp Dewpoint Dewpoint Depression Visibility Wind Speed Wind Dir Waves Ship Positions

Ibis Bulker

Last reported at 2018-Apr-08 12:57 UTC. Time now 2018-Jun-21 19:58 UTC.
Position N 37°27' E 025°56'.
Warning: this ship's position is months out of date.

Length 190 m; draft 10.9 m.

Type: Cargo ship. MMSI: 538003946.

Date/timePositionNaut miles runAvg speedWind from/ knotsBaromVisibWave heightAir tempDewpointWater temp
2018-Apr-08 12:57N 37°27' E 025°56'511.1
2018-Apr-08 12:30N 37°32' E 025°54'336 6.6
2018-Apr-06 09:39N 42°06' E 030°08'212.0
2018-Apr-06 09:29N 42°07' E 030°10'612.0
2018-Apr-06 09:00N 42°09' E 030°17'812.0
2018-Apr-06 08:20N 42°13' E 030°27'411.9
2018-Apr-06 08:00N 42°14' E 030°32'611.8
2018-Apr-06 07:30N 42°17' E 030°39'611.6
2018-Apr-06 07:01N 42°19' E 030°46'1111.7
2018-Apr-06 06:07N 42°24' E 030°59'211.7
2018-Apr-06 05:55N 42°25' E 031°02'511.7
2018-Apr-06 05:28N 42°27' E 031°08'611.9
2018-Apr-06 04:59N 42°30' E 031°15'611.8
2018-Apr-06 04:27N 42°32' E 031°23'511.6
2018-Apr-06 04:00N 42°35' E 031°30'611.5
2018-Apr-06 03:30N 42°37' E 031°36'611.5
2018-Apr-06 03:00N 42°39' E 031°44'611.5
2018-Apr-06 02:30N 42°42' E 031°51'611.5
2018-Apr-06 02:01N 42°44' E 031°58'611.4
2018-Apr-06 01:30N 42°46' E 032°05'611.4
2018-Apr-06 01:00N 42°49' E 032°12'611.4
2018-Apr-06 00:30N 42°51' E 032°19'911.3
2018-Apr-05 23:44N 42°54' E 032°31'211.2
2018-Apr-05 23:31N 42°55' E 032°34'611.3
2018-Apr-05 23:01N 42°57' E 032°41'611.4
2018-Apr-05 22:30N 42°60' E 032°48'611.5
2018-Apr-05 22:00N 43°02' E 032°55'611.6
2018-Apr-05 21:31N 43°04' E 033°02'611.7
2018-Apr-05 21:00N 43°06' E 033°10'611.8
2018-Apr-05 20:30N 43°08' E 033°18'611.8
2018-Apr-05 19:59N 43°11' E 033°25'611.9
2018-Apr-05 19:31N 43°13' E 033°32'611.8
2018-Apr-05 19:01N 43°15' E 033°40'611.8
2018-Apr-05 18:30N 43°18' E 033°47'611.7
2018-Apr-05 18:00N 43°20' E 033°55'612.0
2018-Apr-05 17:30N 43°23' E 034°02'612.0
2018-Apr-05 17:01N 43°25' E 034°10'611.7
2018-Apr-05 16:30N 43°27' E 034°17'611.7
2018-Apr-05 16:01N 43°29' E 034°25'611.4
2018-Apr-05 15:30N 43°31' E 034°32'611.3
2018-Apr-05 15:00N 43°33' E 034°39'611.5
2018-Apr-05 14:30N 43°35' E 034°47'611.4
2018-Apr-05 14:00N 43°38' E 034°54'611.2
2018-Apr-05 13:30N 43°40' E 035°01'10811.9
2018-Apr-05 04:30N 44°23' E 037°18'611.8
2018-Apr-05 03:59N 44°26' E 037°25'611.7
2018-Apr-05 03:30N 44°29' E 037°32'611.7
2018-Apr-05 03:01N 44°31' E 037°40'611.1
2018-Apr-05 02:30N 44°35' E 037°46'510.6
2018-Apr-05 02:00N 44°39' E 037°50'4 7.7
2018-Apr-05 01:30N 44°43' E 037°48'1 2.2
2018-Apr-05 00:59N 44°44' E 037°48'0 0.0
2018-Apr-05 00:26N 44°44' E 037°48'0 0.0
2018-Apr-04 23:59N 44°44' E 037°48'0 0.0
2018-Apr-04 23:29N 44°44' E 037°48'0 0.0
2018-Apr-04 22:59N 44°44' E 037°48'0 0.0
2018-Apr-04 22:29N 44°44' E 037°48'0 0.0
2018-Apr-04 21:59N 44°44' E 037°48'0 0.0
2018-Apr-04 21:29N 44°44' E 037°48'0 0.0
2018-Apr-04 20:59N 44°44' E 037°48'0 0.0
2018-Apr-04 20:29N 44°44' E 037°48'0 0.0
2018-Apr-04 19:59N 44°44' E 037°48'0 0.0
2018-Apr-04 19:29N 44°44' E 037°48'0 0.0
2018-Apr-04 18:59N 44°44' E 037°48'0 0.0
2018-Apr-04 18:29N 44°44' E 037°48'0 0.0
2018-Apr-04 17:59N 44°44' E 037°48'0 0.0
2018-Apr-04 17:29N 44°44' E 037°48'0 0.0
2018-Apr-04 16:59N 44°44' E 037°48'0 0.0
2018-Apr-04 16:29N 44°44' E 037°48'0 0.0
2018-Apr-04 15:59N 44°44' E 037°48'0 0.0
2018-Apr-04 15:29N 44°44' E 037°48'0 0.0
2018-Apr-04 14:59N 44°44' E 037°48'0 0.0
2018-Apr-04 14:29N 44°44' E 037°48'0 0.0
2018-Apr-04 13:59N 44°44' E 037°48'0 0.0
2018-Apr-04 13:29N 44°44' E 037°48'0 0.0
2018-Apr-04 12:59N 44°44' E 037°48'0 0.0
2018-Apr-04 12:29N 44°44' E 037°48'0 0.0
2018-Apr-04 11:59N 44°44' E 037°48'0 0.0
2018-Apr-04 11:29N 44°44' E 037°48'0 0.0
2018-Apr-04 10:59N 44°44' E 037°48'0 0.0
2018-Apr-04 10:29N 44°44' E 037°48'0 0.0
2018-Apr-04 09:59N 44°44' E 037°48'0 0.0
2018-Apr-04 09:29N 44°44' E 037°48'0 0.0
2018-Apr-04 08:59N 44°44' E 037°48'0 0.0
2018-Apr-04 08:29N 44°44' E 037°48'0 0.0
2018-Apr-04 07:59N 44°44' E 037°48'0 0.0
2018-Apr-04 07:29N 44°44' E 037°48'0 0.0
2018-Apr-04 06:59N 44°44' E 037°48'0 0.0
2018-Apr-04 06:29N 44°44' E 037°48'0 0.0
2018-Apr-04 05:59N 44°44' E 037°48'0 0.0
2018-Apr-04 05:29N 44°44' E 037°48'0 0.0
2018-Apr-04 04:59N 44°44' E 037°48'0 0.0
2018-Apr-04 04:29N 44°44' E 037°48'0 0.0
2018-Apr-04 03:59N 44°44' E 037°48'0 0.0
2018-Apr-04 03:29N 44°44' E 037°48'0 0.0
2018-Apr-04 02:59N 44°44' E 037°48'0 0.0
2018-Apr-04 02:29N 44°44' E 037°48'0 0.0
2018-Apr-04 01:59N 44°44' E 037°48'0 0.0
2018-Apr-04 01:29N 44°44' E 037°48'0 0.0
2018-Apr-04 00:59N 44°44' E 037°48'0 0.0
2018-Apr-04 00:29N 44°44' E 037°48'0 0.0
2018-Apr-03 23:59N 44°44' E 037°48'0 0.0
2018-Apr-03 23:29N 44°44' E 037°48'0 0.0
2018-Apr-03 22:59N 44°44' E 037°48'0 0.0
2018-Apr-03 22:29N 44°44' E 037°48'0 0.0
2018-Apr-03 21:59N 44°44' E 037°48'0 0.0
2018-Apr-03 21:26N 44°44' E 037°48'0 0.0
2018-Apr-03 20:59N 44°44' E 037°48'0 0.0
2018-Apr-03 20:29N 44°44' E 037°48'0 0.0
2018-Apr-03 19:59N 44°44' E 037°48'0 0.0
2018-Apr-03 19:29N 44°44' E 037°48'0 0.0
2018-Apr-03 18:59N 44°44' E 037°48'0 0.0
2018-Apr-03 18:29N 44°44' E 037°48'0 0.0
2018-Apr-03 17:59N 44°44' E 037°48'0 0.0
2018-Apr-03 17:29N 44°44' E 037°48'0 0.0
2018-Apr-03 16:59N 44°44' E 037°48'0 0.0
2018-Apr-03 16:29N 44°44' E 037°48'0 0.0
2018-Apr-03 15:59N 44°44' E 037°48'0 0.0
2018-Apr-03 15:29N 44°44' E 037°48'0 0.0
2018-Apr-03 14:59N 44°44' E 037°48'0 0.0
2018-Apr-03 14:29N 44°44' E 037°48'0 0.0
2018-Apr-03 13:59N 44°44' E 037°48'0 0.0
2018-Apr-03 13:29N 44°44' E 037°48'0 0.7
2018-Apr-03 13:00N 44°43' E 037°48'4 7.1
2018-Apr-03 12:31N 44°40' E 037°50'3 5.5
2018-Apr-03 12:01N 44°38' E 037°52'2 4.6
2018-Apr-03 11:30N 44°35' E 037°52'3 6.8
2018-Apr-03 11:00N 44°32' E 037°51'510.3
2018-Apr-03 10:30N 44°30' E 037°44'1313.4
2018-Apr-03 09:32N 44°35' E 038°01'0 0.2
2018-Apr-03 09:30N 44°35' E 038°01'0 0.0
2018-Apr-03 09:00N 44°35' E 038°01'0 0.0
2018-Apr-03 08:30N 44°35' E 038°01'0 0.0
2018-Apr-03 07:58N 44°35' E 038°01'0 0.0
2018-Apr-03 07:31N 44°35' E 038°01'1937.7
2018-Apr-03 07:00N 44°27' E 037°37'611.5
2018-Apr-03 06:30N 44°24' E 037°31'  
2018-Mar-31 04:19N 39°02' E 025°10'512.7
2018-Mar-31 03:55N 38°58' E 025°06'7210.0
2018-Mar-30 20:42N 38°00' E 024°10'312.1
2018-Mar-30 20:26N 38°03' E 024°09'  

Dump ship's entire track history